Terminal Aerodrome Forecast
Issued by NWS

Home | Current Version | Previous Version | Text Only | Print | Product List | Glossary On
Versions: 1 2 3 4 5 6 7 8 9 10 11 12
000
FTUS46 KSTO 292300
TAFSCK
TAF
KSCK 292336Z 3000/3024 30007KT P6SM BKN250
     FM300200 28014KT P6SM SCT250
     FM300900 34004KT P6SM SKC
     FM302100 30007KT P6SM SCT250=

USA.gov is the U.S. government's official web portal to all federal, state and local government web resources and services.